createdAt,value
2023-04-14T00:00:16.550Z,49.33
2023-04-14T00:01:16.528Z,49.20
2023-04-14T00:02:16.671Z,49.40
2023-04-14T00:03:16.671Z,49.45
2023-04-14T00:04:16.620Z,49.46
2023-04-14T00:05:16.635Z,49.74
2023-04-14T00:06:16.497Z,49.48
2023-04-14T00:07:16.480Z,49.61
2023-04-14T00:08:16.465Z,49.48
2023-04-14T00:09:16.468Z,49.59
2023-04-14T00:10:16.477Z,49.76
2023-04-14T00:11:16.445Z,49.53
2023-04-14T00:12:16.470Z,49.28
2023-04-14T00:13:16.434Z,50.14
2023-04-14T00:14:16.439Z,49.78
2023-04-14T00:15:16.448Z,49.69
2023-04-14T00:16:16.430Z,49.71
2023-04-14T00:17:16.413Z,49.67
2023-04-14T00:18:16.406Z,50.25
2023-04-14T00:19:16.389Z,50.00
2023-04-14T00:20:16.406Z,49.50
2023-04-14T00:21:16.389Z,49.56
2023-04-14T00:22:16.390Z,50.06
2023-04-14T00:23:16.357Z,49.46
2023-04-14T00:24:16.364Z,49.55
2023-04-14T00:25:16.377Z,49.40
2023-04-14T00:26:16.357Z,49.35
2023-04-14T00:27:16.327Z,49.41
2023-04-14T00:28:16.346Z,49.56
2023-04-14T00:29:16.338Z,49.75
2023-04-14T00:30:16.330Z,49.44
2023-04-14T00:31:16.360Z,49.43
2023-04-14T00:32:16.303Z,49.58
2023-04-14T00:33:16.284Z,49.88
2023-04-14T00:34:16.275Z,49.38
2023-04-14T00:35:16.284Z,49.49
2023-04-14T00:36:16.288Z,49.39
2023-04-14T00:37:16.252Z,49.45
2023-04-14T00:38:16.242Z,49.45
2023-04-14T00:39:16.236Z,49.47
2023-04-14T00:40:16.248Z,49.36
2023-04-14T00:41:16.232Z,49.24
2023-04-14T00:42:16.223Z,49.17
2023-04-14T00:43:16.208Z,49.51
2023-04-14T00:44:16.226Z,49.50
2023-04-14T00:45:16.234Z,49.74
2023-04-14T00:46:16.231Z,49.65
2023-04-14T00:47:16.213Z,49.50
2023-04-14T00:48:16.170Z,49.41
2023-04-14T00:49:16.170Z,49.59
2023-04-14T00:50:16.172Z,49.82
2023-04-14T00:51:16.162Z,49.66
2023-04-14T00:52:16.171Z,49.96
2023-04-14T00:53:16.132Z,49.89
2023-04-14T00:54:16.130Z,49.69
2023-04-14T00:55:16.146Z,49.32
2023-04-14T00:56:16.114Z,49.43
2023-04-14T00:57:16.117Z,49.52
2023-04-14T00:58:16.113Z,49.39
2023-04-14T00:59:16.090Z,49.76
2023-04-14T01:00:16.105Z,49.47
2023-04-14T01:01:16.121Z,49.69
2023-04-14T01:02:16.119Z,49.91
2023-04-14T01:03:16.152Z,49.94
2023-04-14T01:04:16.277Z,50.21
2023-04-14T01:05:16.233Z,49.51
2023-04-14T01:06:16.061Z,49.32
2023-04-14T01:07:16.042Z,49.37
2023-04-14T01:08:16.018Z,49.36
2023-04-14T01:09:16.022Z,49.52
2023-04-14T01:10:16.020Z,49.67
2023-04-14T01:11:16.126Z,49.82
2023-04-14T01:12:15.988Z,49.93
2023-04-14T01:13:15.987Z,49.92
2023-04-14T01:14:15.994Z,49.89
2023-04-14T01:15:15.982Z,49.88
2023-04-14T01:16:16.235Z,49.83
2023-04-14T01:17:15.956Z,49.42
2023-04-14T01:18:16.949Z,49.07
2023-04-14T01:19:15.950Z,49.14
2023-04-14T01:20:15.968Z,49.70
2023-04-14T01:21:15.936Z,49.71
2023-04-14T01:22:15.950Z,49.88
2023-04-14T01:23:15.927Z,49.84
2023-04-14T01:24:15.942Z,50.03
2023-04-14T01:25:15.909Z,49.90
2023-04-14T01:26:16.942Z,49.64
2023-04-14T01:27:15.906Z,49.54
2023-04-14T01:28:15.894Z,50.33
2023-04-14T01:29:15.886Z,50.20
2023-04-14T01:30:15.897Z,49.94
2023-04-14T01:31:15.907Z,50.15
2023-04-14T01:32:15.880Z,50.47
2023-04-14T01:33:15.850Z,50.30
2023-04-14T01:34:16.868Z,50.47
2023-04-14T01:35:15.877Z,50.62
2023-04-14T01:36:15.841Z,50.27
2023-04-14T01:37:15.834Z,50.17
2023-04-14T01:38:15.874Z,50.15
2023-04-14T01:39:15.825Z,50.13
2023-04-14T01:40:15.824Z,50.21
2023-04-14T01:41:15.817Z,50.43
2023-04-14T01:42:15.800Z,50.24
2023-04-14T01:43:15.779Z,50.37
2023-04-14T01:44:15.775Z,50.88
2023-04-14T01:45:15.802Z,50.63
2023-04-14T01:46:15.814Z,50.42
2023-04-14T01:47:15.769Z,50.23
2023-04-14T01:48:15.757Z,50.26
2023-04-14T01:49:15.782Z,50.30
2023-04-14T01:50:15.772Z,50.63
2023-04-14T01:51:15.752Z,51.06
2023-04-14T01:52:15.735Z,50.73
2023-04-14T01:53:15.719Z,50.81
2023-04-14T01:54:15.708Z,50.70
2023-04-14T01:55:15.737Z,50.65
2023-04-14T01:56:15.705Z,50.56
2023-04-14T01:57:15.696Z,50.35
2023-04-14T01:58:15.700Z,58.76
2023-04-14T01:59:15.690Z,57.21
2023-04-14T02:00:15.700Z,56.68
2023-04-14T02:01:15.689Z,56.68
2023-04-14T02:02:15.712Z,56.49
2023-04-14T02:03:15.782Z,56.72
2023-04-14T02:04:15.681Z,56.69
2023-04-14T02:05:15.700Z,56.68
2023-04-14T02:06:15.671Z,56.62
2023-04-14T02:07:15.647Z,56.71
2023-04-14T02:08:15.622Z,56.70
2023-04-14T02:09:15.615Z,56.59
2023-04-14T02:10:15.661Z,56.60
2023-04-14T02:11:15.617Z,56.62
2023-04-14T02:12:15.592Z,56.66
2023-04-14T02:13:15.598Z,56.40
2023-04-14T02:14:15.590Z,56.41
2023-04-14T02:15:15.595Z,56.53
2023-04-14T02:16:15.625Z,56.65
2023-04-14T02:17:15.559Z,56.63
2023-04-14T02:18:15.549Z,56.66
2023-04-14T02:19:15.549Z,56.56
2023-04-14T02:20:15.564Z,56.63
2023-04-14T02:21:15.532Z,56.60
2023-04-14T02:22:15.525Z,56.57
2023-04-14T02:23:15.521Z,56.57
2023-04-14T02:24:15.505Z,56.47
2023-04-14T02:25:15.545Z,56.52
2023-04-14T02:26:15.502Z,56.58
2023-04-14T02:27:15.482Z,56.71
2023-04-14T02:28:15.482Z,56.74
2023-04-14T02:29:15.500Z,56.71
2023-04-14T02:30:15.499Z,56.52
2023-04-14T02:31:15.502Z,56.76
2023-04-14T02:32:15.454Z,56.58
2023-04-14T02:33:15.447Z,56.52
2023-04-14T02:34:15.474Z,56.55
2023-04-14T02:35:15.469Z,56.53
2023-04-14T02:36:15.444Z,56.60
2023-04-14T02:37:15.439Z,56.58
2023-04-14T02:38:15.428Z,56.53
2023-04-14T02:39:15.410Z,56.27
2023-04-14T02:40:15.433Z,56.44
2023-04-14T02:41:15.400Z,56.54
2023-04-14T02:42:15.426Z,56.58
2023-04-14T02:43:15.390Z,56.59
2023-04-14T02:44:15.379Z,56.56
2023-04-14T02:45:15.440Z,56.50
2023-04-14T02:46:15.391Z,56.64
2023-04-14T02:47:15.366Z,56.53
2023-04-14T02:48:15.400Z,56.86
2023-04-14T02:49:15.343Z,56.41
2023-04-14T02:50:15.367Z,56.59
2023-04-14T02:51:15.361Z,56.48
2023-04-14T02:52:16.348Z,56.44
2023-04-14T02:53:15.326Z,56.25
2023-04-14T02:54:15.334Z,56.25
2023-04-14T02:55:15.346Z,56.21
2023-04-14T02:56:15.327Z,56.23
2023-04-14T02:57:15.304Z,56.13
2023-04-14T02:58:15.311Z,56.24
2023-04-14T02:59:15.282Z,54.11
2023-04-14T03:00:15.299Z,49.44
2023-04-14T03:01:15.285Z,50.56
2023-04-14T03:02:15.294Z,50.48
2023-04-14T03:03:15.424Z,50.39
2023-04-14T03:04:15.291Z,50.26
2023-04-14T03:05:15.282Z,50.32
2023-04-14T03:06:15.261Z,50.28
2023-04-14T03:07:15.235Z,50.33
2023-04-14T03:08:15.236Z,50.06
2023-04-14T03:09:15.236Z,50.37
2023-04-14T03:10:15.247Z,50.88
2023-04-14T03:11:15.214Z,50.58
2023-04-14T03:12:15.217Z,50.57
2023-04-14T03:13:15.213Z,50.17
2023-04-14T03:14:15.193Z,49.90
2023-04-14T03:15:15.256Z,49.93
2023-04-14T03:16:16.268Z,50.01
2023-04-14T03:17:15.185Z,49.95
2023-04-14T03:18:15.178Z,50.36
2023-04-14T03:19:15.174Z,49.79
2023-04-14T03:20:15.200Z,50.32
2023-04-14T03:21:15.148Z,51.01
2023-04-14T03:22:15.153Z,50.73
2023-04-14T03:23:15.130Z,50.54
2023-04-14T03:24:15.122Z,51.04
2023-04-14T03:25:15.120Z,52.16
2023-04-14T03:26:15.130Z,50.65
2023-04-14T03:27:15.107Z,50.43
2023-04-14T03:28:15.118Z,50.64
2023-04-14T03:29:15.088Z,50.79
2023-04-14T03:30:15.091Z,50.54
2023-04-14T03:31:15.140Z,50.54
2023-04-14T03:32:15.068Z,50.91
2023-04-14T03:33:15.059Z,50.92
2023-04-14T03:34:15.053Z,51.01
2023-04-14T03:35:15.076Z,51.11
2023-04-14T03:36:15.058Z,51.39
2023-04-14T03:37:15.033Z,50.66
2023-04-14T03:38:15.029Z,50.48
2023-04-14T03:39:15.032Z,50.82
2023-04-14T03:40:15.015Z,50.51
2023-04-14T03:41:15.032Z,50.78
2023-04-14T03:42:15.012Z,51.37
2023-04-14T03:43:14.996Z,51.34
2023-04-14T03:44:14.976Z,51.73
2023-04-14T03:45:14.994Z,51.84
2023-04-14T03:46:14.997Z,52.50
2023-04-14T03:47:14.957Z,52.71
2023-04-14T03:48:14.976Z,52.97
2023-04-14T03:49:14.954Z,53.21
2023-04-14T03:50:14.936Z,52.91
2023-04-14T03:51:14.961Z,52.29
2023-04-14T03:52:14.927Z,52.31
2023-04-14T03:53:14.973Z,52.22
2023-04-14T03:54:14.917Z,51.84
2023-04-14T03:55:14.917Z,53.99
2023-04-14T03:56:14.957Z,58.62
2023-04-14T03:57:14.900Z,56.35
2023-04-14T03:58:14.902Z,56.19
2023-04-14T03:59:14.879Z,56.09
2023-04-14T04:00:14.883Z,56.28
2023-04-14T04:01:14.897Z,55.99
2023-04-14T04:02:14.977Z,55.70
2023-04-14T04:03:15.258Z,56.04
2023-04-14T04:04:15.048Z,55.76
2023-04-14T04:05:14.887Z,55.89
2023-04-14T04:06:14.842Z,55.69
2023-04-14T04:07:14.827Z,55.47
2023-04-14T04:08:14.822Z,55.47
2023-04-14T04:09:14.817Z,55.55
2023-04-14T04:10:14.805Z,55.59
2023-04-14T04:11:14.816Z,55.86
2023-04-14T04:12:14.792Z,55.83
2023-04-14T04:13:14.791Z,55.89
2023-04-14T04:14:14.773Z,55.55
2023-04-14T04:15:14.778Z,55.72
2023-04-14T04:16:14.804Z,56.04
2023-04-14T04:17:14.763Z,56.08
2023-04-14T04:18:14.767Z,56.47
2023-04-14T04:19:14.749Z,56.77
2023-04-14T04:20:14.754Z,56.19
2023-04-14T04:21:14.788Z,56.20
2023-04-14T04:22:14.733Z,56.45
2023-04-14T04:23:14.728Z,56.19
2023-04-14T04:24:14.724Z,56.04
2023-04-14T04:25:14.725Z,56.17
2023-04-14T04:26:14.734Z,56.42
2023-04-14T04:27:27.152Z,56.56
2023-04-14T04:28:16.689Z,56.30
2023-04-14T04:29:14.701Z,56.23
2023-04-14T04:30:14.697Z,56.62
2023-04-14T04:31:14.708Z,56.44
2023-04-14T04:32:14.741Z,56.42
2023-04-14T04:33:14.747Z,56.27
2023-04-14T04:34:14.656Z,56.45
2023-04-14T04:35:14.660Z,56.16
2023-04-14T04:36:14.651Z,56.17
2023-04-14T04:37:15.643Z,56.56
2023-04-14T04:38:14.625Z,56.51
2023-04-14T04:39:14.626Z,56.37
2023-04-14T04:40:14.616Z,56.16
2023-04-14T04:41:14.625Z,56.38
2023-04-14T04:42:14.643Z,56.51
2023-04-14T04:43:14.605Z,56.24
2023-04-14T04:44:14.597Z,56.74
2023-04-14T04:45:14.608Z,56.34
2023-04-14T04:46:14.629Z,56.41
2023-04-14T04:47:14.580Z,56.48
2023-04-14T04:48:14.576Z,56.71
2023-04-14T04:49:14.560Z,56.76
2023-04-14T04:50:14.566Z,56.74
2023-04-14T04:51:14.569Z,56.39
2023-04-14T04:52:14.550Z,56.34
2023-04-14T04:53:14.529Z,56.64
2023-04-14T04:54:14.551Z,56.62
2023-04-14T04:55:14.520Z,56.40
2023-04-14T04:56:14.528Z,56.44
2023-04-14T04:57:14.511Z,56.41
2023-04-14T04:58:14.502Z,56.45
2023-04-14T04:59:14.496Z,56.45
2023-04-14T05:00:14.490Z,56.55
2023-04-14T05:01:14.553Z,56.20
2023-04-14T05:02:14.515Z,56.51
2023-04-14T05:03:14.526Z,56.47
2023-04-14T05:04:14.494Z,56.44
2023-04-14T05:05:14.459Z,56.59
2023-04-14T05:06:14.488Z,56.50
2023-04-14T05:07:14.438Z,56.58
2023-04-14T05:08:15.386Z,56.87
2023-04-14T05:09:15.920Z,56.68
2023-04-14T05:10:15.616Z,56.27
2023-04-14T05:11:14.701Z,56.79
2023-04-14T05:12:14.728Z,56.48
2023-04-14T05:13:14.720Z,56.62
2023-04-14T05:14:14.781Z,56.63
2023-04-14T05:15:14.577Z,56.73
2023-04-14T05:16:14.783Z,56.98
2023-04-14T05:17:14.590Z,57.07
2023-04-14T05:18:14.628Z,56.64
2023-04-14T05:19:14.624Z,56.41
2023-04-14T05:20:14.512Z,56.27
2023-04-14T05:21:14.593Z,56.74
2023-04-14T05:22:15.151Z,56.41
2023-04-14T05:23:15.584Z,56.80
2023-04-14T05:24:14.497Z,56.82
2023-04-14T05:25:14.544Z,56.67
2023-04-14T05:26:39.077Z,56.66
2023-04-14T05:27:17.172Z,56.22
2023-04-14T05:28:14.464Z,56.19
2023-04-14T05:29:15.105Z,56.28
2023-04-14T05:30:14.612Z,56.64
2023-04-14T05:31:16.290Z,56.46
2023-04-14T05:32:14.670Z,56.59
2023-04-14T05:33:14.484Z,56.36
2023-04-14T05:34:14.506Z,56.15
2023-04-14T05:35:14.458Z,56.02
2023-04-14T05:36:14.281Z,56.22
2023-04-14T05:37:14.285Z,56.04
2023-04-14T05:38:14.254Z,56.06
2023-04-14T05:39:14.255Z,55.94
2023-04-14T05:40:14.300Z,56.01
2023-04-14T05:41:14.252Z,50.71
2023-04-14T05:42:14.222Z,50.70
2023-04-14T05:43:14.212Z,51.55
2023-04-14T05:44:14.217Z,51.46
2023-04-14T05:45:14.206Z,51.80
2023-04-14T05:46:14.242Z,51.13
2023-04-14T05:47:14.194Z,51.77
2023-04-14T05:48:14.175Z,50.88
2023-04-14T05:49:14.178Z,52.06
2023-04-14T05:50:14.159Z,50.91
2023-04-14T05:51:15.193Z,52.17
2023-04-14T05:52:14.146Z,50.85
2023-04-14T05:53:14.148Z,50.51
2023-04-14T05:54:14.195Z,51.01
2023-04-14T05:55:14.123Z,51.09
2023-04-14T05:56:14.142Z,50.81
2023-04-14T05:57:14.125Z,54.10
2023-04-14T05:58:14.103Z,50.90
2023-04-14T05:59:14.107Z,51.24
2023-04-14T06:00:14.089Z,50.77
2023-04-14T06:01:14.105Z,51.46
2023-04-14T06:02:14.111Z,50.72
2023-04-14T06:03:14.433Z,51.28
2023-04-14T06:04:14.149Z,51.71
2023-04-14T06:05:14.072Z,51.00
2023-04-14T06:06:14.079Z,51.28
2023-04-14T06:07:14.047Z,51.07
2023-04-14T06:08:14.052Z,51.54
2023-04-14T06:09:14.032Z,51.59
2023-04-14T06:10:14.025Z,50.83
2023-04-14T06:11:14.043Z,51.85
2023-04-14T06:12:14.012Z,51.35
2023-04-14T06:13:14.016Z,51.25
2023-04-14T06:14:13.993Z,50.27
2023-04-14T06:15:13.998Z,50.74
2023-04-14T06:16:14.056Z,50.99
2023-04-14T06:17:13.985Z,50.37
2023-04-14T06:18:13.977Z,51.14
2023-04-14T06:19:13.976Z,51.16
2023-04-14T06:20:13.958Z,51.03
2023-04-14T06:21:13.966Z,51.94
2023-04-14T06:22:13.937Z,52.13
2023-04-14T06:23:13.944Z,50.65
2023-04-14T06:24:13.943Z,49.99
2023-04-14T06:25:13.923Z,50.43
2023-04-14T06:26:13.933Z,50.81
2023-04-14T06:27:13.916Z,50.14
2023-04-14T06:28:13.901Z,50.94
2023-04-14T06:29:13.889Z,51.15
2023-04-14T06:30:13.879Z,50.50
2023-04-14T06:31:13.908Z,51.31
2023-04-14T06:32:13.948Z,50.94
2023-04-14T06:33:13.875Z,50.23
2023-04-14T06:34:13.877Z,51.89
2023-04-14T06:35:25.742Z,50.45
2023-04-14T06:36:15.858Z,51.05
2023-04-14T06:37:13.835Z,50.61
2023-04-14T06:38:13.820Z,52.23
2023-04-14T06:39:13.854Z,50.88
2023-04-14T06:40:13.810Z,51.36
2023-04-14T06:41:13.837Z,51.04
2023-04-14T06:42:13.847Z,51.44
2023-04-14T06:43:13.789Z,50.69
2023-04-14T06:44:13.792Z,50.34
2023-04-14T06:45:13.770Z,50.50
2023-04-14T06:46:13.795Z,51.26
2023-04-14T06:47:13.779Z,50.77
2023-04-14T06:48:13.744Z,51.53
2023-04-14T06:49:13.766Z,50.97
2023-04-14T06:50:13.754Z,53.10
2023-04-14T06:51:13.783Z,51.87
2023-04-14T06:52:13.742Z,52.20
2023-04-14T06:53:13.725Z,51.19
2023-04-14T06:54:13.720Z,52.45
2023-04-14T06:55:13.718Z,50.96
2023-04-14T06:56:13.717Z,52.27
2023-04-14T06:57:13.676Z,51.27
2023-04-14T06:58:14.728Z,51.67
2023-04-14T06:59:13.689Z,51.52
2023-04-14T07:00:13.687Z,51.73
2023-04-14T07:01:13.738Z,50.55
2023-04-14T07:02:13.701Z,51.31
2023-04-14T07:03:13.688Z,50.57
2023-04-14T07:04:13.644Z,50.62
2023-04-14T07:05:13.784Z,50.75
2023-04-14T07:06:13.626Z,50.68
2023-04-14T07:07:14.632Z,50.41
2023-04-14T07:08:13.605Z,50.74
2023-04-14T07:09:13.599Z,49.75
2023-04-14T07:10:13.595Z,50.13
2023-04-14T07:11:13.612Z,50.62
2023-04-14T07:12:14.574Z,51.08
2023-04-14T07:13:13.562Z,51.11
2023-04-14T07:14:13.587Z,50.86
2023-04-14T07:15:13.548Z,51.35
2023-04-14T07:16:13.597Z,50.49
2023-04-14T07:17:13.539Z,50.16
2023-04-14T07:18:13.585Z,50.09
2023-04-14T07:19:13.519Z,51.38
2023-04-14T07:20:13.533Z,51.80
2023-04-14T07:21:13.540Z,50.33
2023-04-14T07:22:13.533Z,50.86
2023-04-14T07:23:13.510Z,50.60
2023-04-14T07:24:15.213Z,49.88
2023-04-14T07:25:13.480Z,50.43
2023-04-14T07:26:13.490Z,51.34
2023-04-14T07:27:13.477Z,48.69
2023-04-14T07:28:13.463Z,47.63
2023-04-14T07:29:13.460Z,48.04
2023-04-14T07:30:13.470Z,48.89
2023-04-14T07:31:13.505Z,49.34
2023-04-14T07:32:13.555Z,50.03
2023-04-14T07:33:13.463Z,49.98
2023-04-14T07:34:13.423Z,49.72
2023-04-14T07:35:13.420Z,50.98
2023-04-14T07:36:13.444Z,51.15
2023-04-14T07:37:13.408Z,50.12
2023-04-14T07:38:13.406Z,49.91
2023-04-14T07:39:13.406Z,50.05
2023-04-14T07:40:13.402Z,50.19
2023-04-14T07:41:13.408Z,52.65
2023-04-14T07:42:13.370Z,50.42
2023-04-14T07:43:13.371Z,50.89
2023-04-14T07:44:13.362Z,50.91
2023-04-14T07:45:13.347Z,50.61
2023-04-14T07:46:13.393Z,50.87
2023-04-14T07:47:13.337Z,50.75
2023-04-14T07:48:13.346Z,50.11
2023-04-14T07:49:13.325Z,48.40
2023-04-14T07:50:13.332Z,48.24
2023-04-14T07:51:13.336Z,49.90
2023-04-14T07:52:13.299Z,50.09
2023-04-14T07:53:13.291Z,48.32
2023-04-14T07:54:13.290Z,49.70
2023-04-14T07:55:13.279Z,50.17
2023-04-14T07:56:13.434Z,49.89
2023-04-14T07:57:13.263Z,49.52
2023-04-14T07:58:15.386Z,51.49
2023-04-14T07:59:14.248Z,49.32
2023-04-14T08:00:13.230Z,50.07
2023-04-14T08:01:13.253Z,49.63
2023-04-14T08:02:13.297Z,50.55
2023-04-14T08:03:13.390Z,50.66
2023-04-14T08:04:13.571Z,50.56
2023-04-14T08:05:13.251Z,51.01
2023-04-14T08:06:13.248Z,50.30
2023-04-14T08:07:13.196Z,49.40
2023-04-14T08:08:13.189Z,50.56
2023-04-14T08:09:13.189Z,49.48
2023-04-14T08:10:13.181Z,50.25
2023-04-14T08:11:13.172Z,50.27
2023-04-14T08:12:13.171Z,49.94
2023-04-14T08:13:13.142Z,50.19
2023-04-14T08:14:13.142Z,50.20
2023-04-14T08:15:13.127Z,49.22
2023-04-14T08:16:13.177Z,50.03
2023-04-14T08:17:13.115Z,50.16
2023-04-14T08:18:13.104Z,50.78
2023-04-14T08:19:13.105Z,50.01
2023-04-14T08:20:13.093Z,50.44
2023-04-14T08:21:14.117Z,50.73
2023-04-14T08:22:13.074Z,50.19
2023-04-14T08:23:13.072Z,50.67
2023-04-14T08:24:13.065Z,52.26
2023-04-14T08:25:13.071Z,51.02
2023-04-14T08:26:13.069Z,50.39
2023-04-14T08:27:13.050Z,51.79
2023-04-14T08:28:13.023Z,51.71
2023-04-14T08:29:13.055Z,50.39
2023-04-14T08:30:13.041Z,51.44
2023-04-14T08:31:13.265Z,50.32
2023-04-14T08:32:13.095Z,51.34
2023-04-14T08:33:13.140Z,50.72
2023-04-14T08:34:13.028Z,50.38
2023-04-14T08:35:37.017Z,50.86
2023-04-14T08:36:13.980Z,50.92
2023-04-14T08:37:12.969Z,52.02
2023-04-14T08:38:12.965Z,50.53
2023-04-14T08:39:12.962Z,50.20
2023-04-14T08:40:12.964Z,48.74
2023-04-14T08:41:12.954Z,48.54
2023-04-14T08:42:12.933Z,50.91
2023-04-14T08:43:15.287Z,50.38
2023-04-14T08:44:13.923Z,49.06
2023-04-14T08:45:12.950Z,49.03
2023-04-14T08:46:12.932Z,49.65
2023-04-14T08:47:12.908Z,48.82
2023-04-14T08:48:12.914Z,48.93
2023-04-14T08:49:12.894Z,50.37
2023-04-14T08:50:12.913Z,50.11
2023-04-14T08:51:12.881Z,50.74
2023-04-14T08:52:12.891Z,50.20
2023-04-14T08:53:12.861Z,50.46
2023-04-14T08:54:12.877Z,50.34
2023-04-14T08:55:12.963Z,49.84
2023-04-14T08:56:12.841Z,49.98
2023-04-14T08:57:12.836Z,51.02
2023-04-14T08:58:12.841Z,49.46
2023-04-14T08:59:12.815Z,49.82
2023-04-14T09:00:12.833Z,48.93
2023-04-14T09:01:12.902Z,49.54
2023-04-14T09:02:12.913Z,49.62
2023-04-14T09:03:12.890Z,49.57
2023-04-14T09:04:12.877Z,50.85
2023-04-14T09:05:12.792Z,50.70
2023-04-14T09:06:12.777Z,50.92
2023-04-14T09:07:12.766Z,49.52
2023-04-14T09:08:12.760Z,49.59
2023-04-14T09:09:12.753Z,49.67
2023-04-14T09:10:12.913Z,50.04
2023-04-14T09:11:12.798Z,49.48
2023-04-14T09:12:12.768Z,49.11
2023-04-14T09:13:12.744Z,49.28
2023-04-14T09:14:12.724Z,48.01
2023-04-14T09:15:12.736Z,48.16
2023-04-14T09:16:12.781Z,48.84
2023-04-14T09:17:12.860Z,49.32
2023-04-14T09:18:12.733Z,49.97
2023-04-14T09:19:12.692Z,48.56
2023-04-14T09:20:36.841Z,49.14
2023-04-14T09:21:51.007Z,50.04
2023-04-14T09:22:13.668Z,49.36
2023-04-14T09:23:12.679Z,53.34
2023-04-14T09:24:12.670Z,49.31
2023-04-14T09:25:12.663Z,49.77
2023-04-14T09:26:12.666Z,49.12
2023-04-14T09:27:12.629Z,48.74
2023-04-14T09:28:12.625Z,49.45
2023-04-14T09:29:12.636Z,50.40
2023-04-14T09:30:12.643Z,49.26
2023-04-14T09:31:12.627Z,49.62
2023-04-14T09:32:12.587Z,49.71
2023-04-14T09:33:12.616Z,49.91
2023-04-14T09:34:12.643Z,48.13
2023-04-14T09:35:12.577Z,49.55
2023-04-14T09:36:12.585Z,50.91
2023-04-14T09:37:12.561Z,50.89
2023-04-14T09:38:12.549Z,50.97
2023-04-14T09:39:12.545Z,50.26
2023-04-14T09:40:12.564Z,53.24
2023-04-14T09:41:12.547Z,49.77
2023-04-14T09:42:12.521Z,50.22
2023-04-14T09:43:12.496Z,48.91
2023-04-14T09:44:12.516Z,49.32
2023-04-14T09:45:12.517Z,49.68
2023-04-14T09:46:12.558Z,48.24
2023-04-14T09:47:12.499Z,49.89
2023-04-14T09:48:12.494Z,49.05
2023-04-14T09:49:12.468Z,49.18
2023-04-14T09:50:12.486Z,48.48
2023-04-14T09:51:12.466Z,48.73
2023-04-14T09:52:12.449Z,49.09
2023-04-14T09:53:12.451Z,48.93
2023-04-14T09:54:12.441Z,48.71
2023-04-14T09:55:12.472Z,48.77
2023-04-14T09:56:12.444Z,48.21
2023-04-14T09:57:12.438Z,47.77
2023-04-14T09:58:12.415Z,48.40
2023-04-14T09:59:12.399Z,48.15
2023-04-14T10:00:12.420Z,48.01
2023-04-14T10:01:12.413Z,48.19
2023-04-14T10:02:12.437Z,48.40
2023-04-14T10:03:12.427Z,47.92
2023-04-14T10:04:12.422Z,48.74
2023-04-14T10:05:12.446Z,48.31
2023-04-14T10:06:12.365Z,48.30
2023-04-14T10:07:12.395Z,48.92
2023-04-14T10:08:12.350Z,48.35
2023-04-14T10:09:12.342Z,48.43
2023-04-14T10:10:12.403Z,47.78
2023-04-14T10:11:12.324Z,48.09
2023-04-14T10:12:12.568Z,48.85
2023-04-14T10:13:12.307Z,48.34
2023-04-14T10:14:12.290Z,47.99
2023-04-14T10:15:12.346Z,47.77
2023-04-14T10:16:12.297Z,47.66
2023-04-14T10:17:12.272Z,47.36
2023-04-14T10:18:12.319Z,47.02
2023-04-14T10:19:12.267Z,48.81
2023-04-14T10:20:12.277Z,48.21
2023-04-14T10:21:12.241Z,47.58
2023-04-14T10:22:12.263Z,48.13
2023-04-14T10:23:12.229Z,47.44
2023-04-14T10:24:12.242Z,46.80
2023-04-14T10:25:12.255Z,47.96
2023-04-14T10:26:12.230Z,46.22
2023-04-14T10:27:12.198Z,47.72
2023-04-14T10:28:12.199Z,45.94
2023-04-14T10:29:12.249Z,45.43
2023-04-14T10:30:12.800Z,46.07
2023-04-14T10:31:12.183Z,45.19
2023-04-14T10:32:12.175Z,45.58
2023-04-14T10:33:12.196Z,46.23
2023-04-14T10:34:12.194Z,44.90
2023-04-14T10:35:12.171Z,45.53
2023-04-14T10:36:12.175Z,44.67
2023-04-14T10:37:12.152Z,44.82
2023-04-14T10:38:12.125Z,43.80
2023-04-14T10:39:12.163Z,44.08
2023-04-14T10:40:12.134Z,44.29
2023-04-14T10:41:12.099Z,44.61
2023-04-14T10:42:12.095Z,44.53
2023-04-14T10:43:12.099Z,45.71
2023-04-14T10:44:12.080Z,44.77
2023-04-14T10:45:13.108Z,44.80
2023-04-14T10:46:12.076Z,44.54
2023-04-14T10:47:12.191Z,45.17
2023-04-14T10:48:12.051Z,44.69
2023-04-14T10:49:12.053Z,43.83
2023-04-14T10:50:12.062Z,44.07
2023-04-14T10:51:12.096Z,44.14
2023-04-14T10:52:12.030Z,42.67
2023-04-14T10:53:12.044Z,43.80
2023-04-14T10:54:12.012Z,46.77
2023-04-14T10:55:12.014Z,43.29
2023-04-14T10:56:11.998Z,44.12
2023-04-14T10:57:11.974Z,43.48
2023-04-14T10:58:11.975Z,45.26
2023-04-14T10:59:11.972Z,44.69
2023-04-14T11:00:12.130Z,44.56
2023-04-14T11:01:11.987Z,43.15
2023-04-14T11:02:12.053Z,43.68
2023-04-14T11:03:12.255Z,43.41
2023-04-14T11:04:12.058Z,44.85
2023-04-14T11:05:12.117Z,44.35
2023-04-14T11:06:11.940Z,44.41
2023-04-14T11:07:11.909Z,44.81
2023-04-14T11:08:11.898Z,44.40
2023-04-14T11:09:11.941Z,46.51
2023-04-14T11:10:11.897Z,43.60
2023-04-14T11:11:11.901Z,46.08
2023-04-14T11:12:11.855Z,44.57
2023-04-14T11:13:12.873Z,43.30
2023-04-14T11:14:11.866Z,43.09
2023-04-14T11:15:11.851Z,44.07
2023-04-14T11:16:11.898Z,43.69
2023-04-14T11:17:11.922Z,42.83
2023-04-14T11:18:11.892Z,42.35
2023-04-14T11:19:11.830Z,42.38
2023-04-14T11:20:11.852Z,42.64
2023-04-14T11:21:11.827Z,41.97
2023-04-14T11:22:11.861Z,42.50
2023-04-14T11:23:11.795Z,42.29
2023-04-14T11:24:11.794Z,42.30
2023-04-14T11:25:11.778Z,42.96
2023-04-14T11:26:11.800Z,41.79
2023-04-14T11:27:11.756Z,42.44
2023-04-14T11:28:11.779Z,42.08
2023-04-14T11:29:11.742Z,42.27
2023-04-14T11:30:11.749Z,41.94
2023-04-14T11:31:11.749Z,42.27
2023-04-14T11:32:11.829Z,43.28
2023-04-14T11:33:12.002Z,42.32
2023-04-14T11:34:11.721Z,42.15
2023-04-14T11:35:11.717Z,42.30
2023-04-14T11:36:11.724Z,42.56
2023-04-14T11:37:11.700Z,43.78
2023-04-14T11:38:11.681Z,42.56
2023-04-14T11:39:11.747Z,43.79
2023-04-14T11:40:11.664Z,43.93
2023-04-14T11:41:11.947Z,44.52
2023-04-14T11:42:11.676Z,42.59
2023-04-14T11:43:11.656Z,44.32
2023-04-14T11:44:11.637Z,42.12
2023-04-14T11:45:11.673Z,43.86
2023-04-14T11:46:11.920Z,43.88
2023-04-14T11:47:11.629Z,43.69
2023-04-14T11:48:11.614Z,44.28
2023-04-14T11:49:11.601Z,43.79
2023-04-14T11:50:11.589Z,42.57
2023-04-14T11:51:11.626Z,42.77
2023-04-14T11:52:11.587Z,42.81
2023-04-14T11:53:11.576Z,43.42
2023-04-14T11:54:11.568Z,44.60
2023-04-14T11:55:11.567Z,42.60
2023-04-14T11:56:11.569Z,44.33
2023-04-14T11:57:11.826Z,44.82
2023-04-14T11:58:11.951Z,44.42
2023-04-14T11:59:12.529Z,44.07
2023-04-14T12:00:11.535Z,46.74
2023-04-14T12:01:11.544Z,43.62
2023-04-14T12:02:11.589Z,44.00
2023-04-14T12:03:11.745Z,43.80
2023-04-14T12:04:11.635Z,43.46
2023-04-14T12:05:11.825Z,44.02
2023-04-14T12:06:12.675Z,43.72
2023-04-14T12:07:11.476Z,49.58
2023-04-14T12:09:12.461Z,43.61
2023-04-14T12:09:58.481Z,45.00
2023-04-14T12:10:11.474Z,53.10
2023-04-14T12:11:11.472Z,53.30
2023-04-14T12:12:11.444Z,53.05
2023-04-14T12:13:11.459Z,53.00
2023-04-14T12:14:11.428Z,53.27
2023-04-14T12:15:11.444Z,52.95
2023-04-14T12:16:11.479Z,52.78
2023-04-14T12:17:11.409Z,53.00
2023-04-14T12:18:11.493Z,53.41
2023-04-14T12:19:11.400Z,52.85
2023-04-14T12:20:11.384Z,53.66
2023-04-14T12:21:12.179Z,53.66
2023-04-14T12:22:11.406Z,53.56
2023-04-14T12:23:11.411Z,54.51
2023-04-14T12:24:11.375Z,53.32
2023-04-14T12:25:11.358Z,54.94
2023-04-14T12:26:11.399Z,54.03
2023-04-14T12:27:11.332Z,56.05
2023-04-14T12:28:11.336Z,53.10
2023-04-14T12:29:11.344Z,53.59
2023-04-14T12:30:11.317Z,53.95
2023-04-14T12:31:11.380Z,55.13
2023-04-14T12:32:11.644Z,49.42
2023-04-14T12:33:11.285Z,44.48
2023-04-14T12:34:11.293Z,48.60
2023-04-14T12:35:11.305Z,51.84
2023-04-14T12:36:11.288Z,55.85
2023-04-14T12:37:11.256Z,54.83
2023-04-14T12:38:11.683Z,53.47
2023-04-14T12:39:11.255Z,52.88
2023-04-14T12:40:12.468Z,54.14
2023-04-14T12:41:11.264Z,54.39
2023-04-14T12:42:11.235Z,53.27
2023-04-14T12:43:11.243Z,53.85
2023-04-14T12:44:11.247Z,53.37
2023-04-14T12:45:14.031Z,56.87
2023-04-14T12:46:11.568Z,54.47
2023-04-14T12:47:11.241Z,53.20
2023-04-14T12:48:11.242Z,53.28
2023-04-14T12:49:11.192Z,53.45
2023-04-14T12:50:11.168Z,53.97
2023-04-14T12:51:12.287Z,55.40
2023-04-14T12:52:11.826Z,54.72